VABBFIMP

Guest
Details From VABB - Bombay Mumbai Chhatrapati Shivaji Intl
To FIMP - SIR SEEWOOSAGUR RAMGOOLAM INTL
Flight Number -
Tags decoded
Created
Modified
Stats Distance 2,536 nm / 4,697 km
Max Altitude 0 ft / 0 m
Waypoints 2
Social Downloads 1
Likes 0
Share VATSIM

Download

Looking for another format? Having issues loading an existing format? Contact us
Advertisement - Login to hide

Notes

Requested: VABB FIMP

Route

VABB FIMP

ID Type Via Altitude Latitude Longitude Leg Dist Tot Dist Heading (true) Name
O VABB APT - 0 ft / 0 m 19.08898˚ 72.86591˚ - 0 nm - Bombay Mumbai Chhatrapati Shivaji Intl
O FIMP APT - 0 ft / 0 m -20.43023˚ 57.68360˚ 2535 nm 2535 nm 201° / 202° SIR SEEWOOSAGUR RAMGOOLAM INTL

Altitude Profile

Advertisement - Login to hide

Weather


0- 5 10 15 20 25 30 35+ Temperature / ° C

Clouds and Precipitation
Forecast for 2017-12-13 18:00 UTC. Updated a few seconds ago

Ground ~20,000 ft ~40,000 ft Winds

VABB

Details ICAO VABB (BOM)
Name Bombay Mumbai Chhatrapati Shivaji Intl
Region India
Timezone Asia/Kolkata (UTC+5.5)
Stats Elevation 37 ft / 11 m (AMSL)
Location 19.088978° 72.865914°
Runways 2
Magnetic Variation 0.176° W

METAR

VABB 131300Z 28007KT 4000 FU NSC 25/15 Q1014 NOSIG

Decode

TAF

TAF VABB 131100Z 1312/1418 29010KT 4000 FU FEW100 BECMG 1313/1315 35006KT 3000 FU BECMG 1318/1320 05005KT BECMG 1322/1324 VRB03KT 2000 HZ BECMG 1403/1405 03005KT 3000 HZ FU BECMG 1407/1409 28010KT 4000 FU BECMG 1413/1415 34006KT 3000 FU

Decode

Departure Runways

ID Width Length Bearing (true) Bearing (mag) Surface Threshold Offset Overrun Length
09 148 ft / 45 m 11,436 ft / 3,486 m 89.16° 89.34° Asphalt 465 ft / 142 m 0 ft / 0 m
14 150 ft / 46 m 9,606 ft / 2,928 m 134.33° 134.51° Asphalt 1,338 ft / 408 m 223 ft / 68 m
27 148 ft / 45 m 11,436 ft / 3,486 m 269.17° 269.35° Asphalt 1,581 ft / 482 m 0 ft / 0 m
32 150 ft / 46 m 9,606 ft / 2,928 m 314.34° 314.52° Asphalt 853 ft / 260 m 0 ft / 0 m

FIMP

Details ICAO FIMP (MRU)
Name SIR SEEWOOSAGUR RAMGOOLAM INTL
Region Mauritius
Timezone Indian/Mauritius (UTC+4.0)
Stats Elevation 186 ft / 57 m (AMSL)
Location -20.430235° 57.683602°
Runways 1
Magnetic Variation 18.413° W

METAR

FIMP 131300Z 06012KT 9999 SCT017 29/23 Q1015

Decode

TAF

TAF FIMP 131110Z 1312/1418 06012G22KT 9999 SCT016 PROB30 TEMPO 1315/1404 7000 -SHRA FEW010 BKN015 BKN050

Decode

Destination Runways

ID Width Length Bearing (true) Bearing (mag) Surface Threshold Offset Overrun Length
14 148 ft / 45 m 11,037 ft / 3,364 m 117.22° 135.63° Asphalt 1,082 ft / 330 m 200 ft / 61 m
32 148 ft / 45 m 11,037 ft / 3,364 m 297.21° 315.62° Asphalt 0 ft / 0 m 0 ft / 0 m

Approach Navaids

Runway Type Ident Frequency Range Bearing (true) Bearing (mag) Slope Elevation
14 Localiser IPL 109.90 MHz 18 nm / 33 km 117.52° 135.93° - 186 ft / 57 m (AMSL)
14 Glidescope IPL 109.90 MHz 10 nm / 19 km 117.22° 135.63° 3.50° 186 ft / 57 m (AMSL)
14 DME IPL 109.90 MHz 18 nm / 33 km - - - 186 ft / 57 m (AMSL)

Popular Alternatives